createdAt,value
2024-04-08T00:00:34.587Z,100559.34
2024-04-08T00:03:26.723Z,100555.04
2024-04-08T00:05:59.392Z,100556.08
2024-04-08T00:08:31.222Z,100555.35
2024-04-08T00:11:09.641Z,100554.89
2024-04-08T00:13:41.484Z,100556.41
2024-04-08T00:16:13.476Z,100554.98
2024-04-08T00:18:45.284Z,100559.23
2024-04-08T00:21:17.629Z,100557.80
2024-04-08T00:23:49.579Z,100559.98
2024-04-08T00:26:22.064Z,100552.44
2024-04-08T00:28:53.816Z,100550.67
2024-04-08T00:31:25.482Z,100541.60
2024-04-08T00:33:57.389Z,100538.23
2024-04-08T00:36:28.989Z,100542.33
2024-04-08T00:39:00.764Z,100543.62
2024-04-08T00:41:32.920Z,100543.61
2024-04-08T00:44:05.162Z,100544.02
2024-04-08T00:46:37.265Z,100551.88
2024-04-08T00:49:09.619Z,100549.79
2024-04-08T00:51:43.553Z,100550.19
2024-04-08T00:54:15.369Z,100539.92
2024-04-08T00:56:47.475Z,100537.43
2024-04-08T00:59:21.057Z,100541.60
2024-04-08T01:01:53.551Z,100535.27
2024-04-08T01:04:25.241Z,100535.27
2024-04-08T01:06:57.220Z,100531.83
2024-04-08T01:09:29.281Z,100521.14
2024-04-08T01:12:01.180Z,100516.98
2024-04-08T01:14:33.709Z,100514.66
2024-04-08T01:17:05.852Z,100514.35
2024-04-08T01:19:37.660Z,100518.52
2024-04-08T01:22:11.686Z,100517.27
2024-04-08T01:24:43.442Z,100513.98
2024-04-08T01:27:15.055Z,100518.48
2024-04-08T01:29:47.539Z,100516.79
2024-04-08T01:32:19.440Z,100513.90
2024-04-08T01:34:51.126Z,100511.89
2024-04-08T01:37:22.826Z,100511.08
2024-04-08T01:39:54.838Z,100504.58
2024-04-08T01:42:27.228Z,100503.30
2024-04-08T01:44:59.463Z,100504.18
2024-04-08T01:47:32.425Z,100502.08
2024-04-08T01:50:04.311Z,100494.97
2024-04-08T01:52:36.715Z,100487.82
2024-04-08T01:55:09.421Z,100485.02
2024-04-08T01:57:41.150Z,100483.97
2024-04-08T02:00:14.062Z,100482.14
2024-04-08T02:02:46.012Z,100486.14
2024-04-08T02:05:18.409Z,100488.79
2024-04-08T02:07:51.546Z,100489.69
2024-04-08T02:10:23.697Z,100484.95
2024-04-08T02:12:55.756Z,100488.00
2024-04-08T02:15:27.695Z,100491.05
2024-04-08T02:18:00.350Z,100494.34
2024-04-08T02:20:37.536Z,100492.65
2024-04-08T02:23:09.355Z,100494.83
2024-04-08T02:25:44.848Z,100495.39
2024-04-08T02:28:16.923Z,100487.05
2024-04-08T02:30:48.688Z,100482.63
2024-04-08T02:33:20.403Z,100474.77
2024-04-08T02:35:52.129Z,100468.92
2024-04-08T02:38:23.929Z,100465.23
2024-04-08T02:40:55.584Z,100466.52
2024-04-08T02:43:27.339Z,100466.45
2024-04-08T02:45:59.140Z,100466.20
2024-04-08T02:48:33.096Z,100459.47
2024-04-08T02:51:05.106Z,100464.44
2024-04-08T02:53:37.691Z,100459.87
2024-04-08T02:56:10.081Z,100454.58
2024-04-08T02:58:41.922Z,100448.64
2024-04-08T03:01:15.012Z,100447.52
2024-04-08T03:03:46.779Z,100446.31
2024-04-08T03:06:19.914Z,100448.70
2024-04-08T03:08:52.010Z,100434.61
2024-04-08T03:11:23.805Z,100432.10
2024-04-08T03:13:55.804Z,100426.73
2024-04-08T03:16:27.826Z,100428.42
2024-04-08T03:18:59.681Z,100426.73
2024-04-08T03:21:31.325Z,100419.61
2024-04-08T03:24:03.619Z,100424.58
2024-04-08T03:26:35.516Z,100428.66
2024-04-08T03:29:07.354Z,100426.10
2024-04-08T03:31:39.130Z,100417.52
2024-04-08T03:34:11.289Z,100417.85
2024-04-08T03:36:43.155Z,100411.68
2024-04-08T03:39:14.926Z,100411.04
2024-04-08T03:41:46.727Z,100403.66
2024-04-08T03:44:18.752Z,100394.27
2024-04-08T03:46:52.193Z,100390.85
2024-04-08T03:49:24.217Z,100399.44
2024-04-08T03:51:58.233Z,100401.36
2024-04-08T03:54:30.094Z,100404.95
2024-04-08T03:57:02.360Z,100406.41
2024-04-08T03:59:34.682Z,100393.77
2024-04-08T04:02:07.708Z,100408.73
2024-04-08T04:04:42.233Z,100403.99
2024-04-08T04:07:14.160Z,100403.67
2024-04-08T04:09:45.976Z,100402.64
2024-04-08T04:12:17.671Z,100399.91
2024-04-08T04:14:49.828Z,100398.14
2024-04-08T04:17:21.935Z,100387.23
2024-04-08T04:19:54.021Z,100379.38
2024-04-08T04:22:26.190Z,100369.03
2024-04-08T04:24:58.030Z,100351.39
2024-04-08T04:27:30.210Z,100344.80
2024-04-08T04:30:02.599Z,100333.10
2024-04-08T04:32:34.596Z,100329.33
2024-04-08T04:35:06.688Z,100327.17
2024-04-08T04:37:38.598Z,100333.17
2024-04-08T04:40:11.486Z,100333.89
2024-04-08T04:42:46.215Z,100323.95
2024-04-08T04:45:20.100Z,100322.25
2024-04-08T04:47:52.168Z,100323.36
2024-04-08T04:50:24.044Z,100320.17
2024-04-08T04:52:55.775Z,100317.83
2024-04-08T04:55:27.943Z,100336.17
2024-04-08T04:57:59.770Z,100348.96
2024-04-08T05:00:34.034Z,100361.27
2024-04-08T05:03:07.790Z,100365.65
2024-04-08T05:05:40.110Z,100372.36
2024-04-08T05:08:12.797Z,100380.30
2024-04-08T05:10:44.628Z,100375.55
2024-04-08T05:13:19.371Z,100367.52
2024-04-08T05:16:00.104Z,100356.77
2024-04-08T05:18:33.404Z,100341.94
2024-04-08T05:21:05.597Z,100339.35
2024-04-08T05:23:39.866Z,100342.63
2024-04-08T05:26:11.962Z,100351.88
2024-04-08T05:28:44.830Z,100347.99
2024-04-08T05:31:16.582Z,100336.10
2024-04-08T05:33:48.401Z,100338.65
2024-04-08T05:36:20.227Z,100343.68
2024-04-08T05:38:52.033Z,100346.07
2024-04-08T05:41:25.395Z,100350.95
2024-04-08T05:43:57.456Z,100350.67
2024-04-08T05:46:34.091Z,100350.83
2024-04-08T05:49:05.844Z,100353.91
2024-04-08T05:51:37.663Z,100351.77
2024-04-08T05:54:09.875Z,100347.34
2024-04-08T05:56:41.717Z,100352.20
2024-04-08T05:59:13.427Z,100352.65
2024-04-08T06:01:45.213Z,100338.01
2024-04-08T06:04:16.931Z,100348.73
2024-04-08T06:06:48.564Z,100363.80
2024-04-08T06:09:20.603Z,100349.39
2024-04-08T06:11:52.327Z,100364.52
2024-04-08T06:14:24.027Z,100362.88
2024-04-08T06:17:00.081Z,100363.46
2024-04-08T06:19:33.125Z,100355.82
2024-04-08T06:22:05.269Z,100354.15
2024-04-08T06:24:37.557Z,100353.05
2024-04-08T06:27:10.123Z,100349.60
2024-04-08T06:29:42.318Z,100343.29
2024-04-08T06:32:14.526Z,100340.28
2024-04-08T06:34:46.454Z,100343.04
2024-04-08T06:37:18.208Z,100341.54
2024-04-08T06:39:50.235Z,100340.63
2024-04-08T06:42:22.702Z,100345.79
2024-04-08T06:44:55.102Z,100334.48
2024-04-08T06:47:29.014Z,100356.95
2024-04-08T06:50:01.508Z,100357.50
2024-04-08T06:52:33.855Z,100360.04
2024-04-08T06:55:07.640Z,100360.91
2024-04-08T06:57:39.622Z,100356.25
2024-04-08T07:00:14.494Z,100357.08
2024-04-08T07:02:46.317Z,100357.58
2024-04-08T07:05:18.319Z,100353.15
2024-04-08T07:07:50.004Z,100356.46
2024-04-08T07:10:23.638Z,100348.20
2024-04-08T07:12:55.595Z,100347.83
2024-04-08T07:15:27.319Z,100345.80
2024-04-08T07:17:59.464Z,100343.31
2024-04-08T07:20:31.520Z,100346.46
2024-04-08T07:23:05.006Z,100343.83
2024-04-08T07:25:36.697Z,100349.27
2024-04-08T07:28:09.382Z,100350.30
2024-04-08T07:30:41.355Z,100336.55
2024-04-08T07:33:13.130Z,100344.65
2024-04-08T07:35:44.984Z,100332.14
2024-04-08T07:38:17.178Z,100340.02
2024-04-08T07:40:48.785Z,100339.34
2024-04-08T07:43:20.442Z,100343.11
2024-04-08T07:45:52.486Z,100345.09
2024-04-08T07:48:24.217Z,100348.93
2024-04-08T07:50:57.531Z,100353.37
2024-04-08T07:53:29.995Z,100354.02
2024-04-08T07:56:02.978Z,100359.21
2024-04-08T07:58:35.558Z,100359.25
2024-04-08T08:01:08.653Z,100357.39
2024-04-08T08:03:40.486Z,100360.02
2024-04-08T08:06:14.874Z,100364.38
2024-04-08T08:08:46.972Z,100358.39
2024-04-08T08:11:19.930Z,100360.55
2024-04-08T08:13:51.626Z,100356.27
2024-04-08T08:16:23.501Z,100352.74
2024-04-08T08:18:55.230Z,100352.79
2024-04-08T08:21:27.530Z,100358.65
2024-04-08T08:24:00.164Z,100361.24
2024-04-08T08:26:33.488Z,100359.34
2024-04-08T08:29:06.211Z,100354.56
2024-04-08T08:31:38.051Z,100348.18
2024-04-08T08:34:09.913Z,100343.91
2024-04-08T08:36:42.148Z,100342.00
2024-04-08T08:39:13.893Z,100347.11
2024-04-08T08:41:52.446Z,100344.36
2024-04-08T08:44:25.572Z,100350.68
2024-04-08T08:46:59.339Z,100346.54
2024-04-08T08:49:32.797Z,100348.67
2024-04-08T08:52:08.529Z,100351.02
2024-04-08T08:54:40.360Z,100349.46
2024-04-08T08:57:13.843Z,100351.20
2024-04-08T08:59:46.469Z,100354.05
2024-04-08T09:02:18.651Z,100362.67
2024-04-08T09:04:50.434Z,100364.73
2024-04-08T09:07:22.865Z,100366.20
2024-04-08T09:09:58.006Z,100362.83
2024-04-08T09:12:30.872Z,100352.23
2024-04-08T09:15:04.782Z,100352.66
2024-04-08T09:17:36.526Z,100349.06
2024-04-08T09:20:09.981Z,100347.05
2024-04-08T09:22:42.192Z,100347.14
2024-04-08T09:25:14.755Z,100336.89
2024-04-08T09:27:54.693Z,100332.50
2024-04-08T09:30:27.650Z,100342.38
2024-04-08T09:33:00.541Z,100339.27
2024-04-08T09:35:39.580Z,100339.13
2024-04-08T09:38:12.704Z,100338.30
2024-04-08T09:40:45.607Z,100336.98
2024-04-08T09:43:18.133Z,100332.80
2024-04-08T09:45:51.291Z,100320.63
2024-04-08T09:48:24.347Z,100314.89
2024-04-08T09:50:59.777Z,100308.29
2024-04-08T09:53:34.169Z,100309.98
2024-04-08T09:56:12.948Z,100309.98
2024-04-08T09:58:49.669Z,100307.20
2024-04-08T10:01:23.467Z,100310.80
2024-04-08T10:03:58.809Z,100305.02
2024-04-08T10:06:32.500Z,100302.13
2024-04-08T10:09:05.734Z,100299.18
2024-04-08T10:11:37.433Z,100298.03
2024-04-08T10:14:18.836Z,100305.71
2024-04-08T10:16:51.895Z,100307.14
2024-04-08T10:19:24.468Z,100304.66
2024-04-08T10:22:03.051Z,100299.06
2024-04-08T10:24:41.319Z,100295.77
2024-04-08T10:27:15.493Z,100295.77
2024-04-08T10:29:57.423Z,100295.62
2024-04-08T10:32:29.506Z,100293.13
2024-04-08T10:35:01.362Z,100290.58
2024-04-08T10:37:33.312Z,100289.77
2024-04-08T10:40:06.240Z,100288.73
2024-04-08T10:42:38.431Z,100288.52
2024-04-08T10:45:10.605Z,100285.73
2024-04-08T10:47:42.598Z,100280.86
2024-04-08T10:50:14.895Z,100279.50
2024-04-08T10:52:46.777Z,100281.85
2024-04-08T10:55:18.680Z,100281.69
2024-04-08T10:57:50.392Z,100285.59
2024-04-08T11:00:22.552Z,100280.39
2024-04-08T11:02:54.570Z,100277.72
2024-04-08T11:05:26.712Z,100273.05
2024-04-08T11:08:00.464Z,100273.08
2024-04-08T11:10:32.511Z,100269.77
2024-04-08T11:13:09.225Z,100271.59
2024-04-08T11:15:42.034Z,100270.61
2024-04-08T11:18:14.259Z,100273.11
2024-04-08T11:20:46.646Z,100273.39
2024-04-08T11:23:20.823Z,100269.90
2024-04-08T11:25:54.198Z,100261.33
2024-04-08T11:28:27.885Z,100257.96
2024-04-08T11:31:04.490Z,100250.46
2024-04-08T11:33:36.488Z,100243.47
2024-04-08T11:36:11.518Z,100244.70
2024-04-08T11:38:45.897Z,100243.83
2024-04-08T11:41:17.724Z,100236.00
2024-04-08T11:43:49.542Z,100242.02
2024-04-08T11:46:23.683Z,100243.94
2024-04-08T11:48:55.600Z,100243.99
2024-04-08T11:51:27.403Z,100240.30
2024-04-08T11:53:59.186Z,100235.36
2024-04-08T11:56:30.825Z,100234.74
2024-04-08T11:59:02.936Z,100235.44
2024-04-08T12:01:34.869Z,100223.11
2024-04-08T12:06:16.703Z,100198.87
2024-04-08T12:08:48.592Z,100223.14
2024-04-08T12:11:20.385Z,100221.52
2024-04-08T12:13:52.172Z,100213.25
2024-04-08T12:16:24.779Z,100209.47
2024-04-08T12:18:57.304Z,100208.78
2024-04-08T12:21:29.284Z,100206.31
2024-04-08T12:24:01.281Z,100197.96
2024-04-08T12:26:33.154Z,100194.27
2024-04-08T12:29:05.579Z,100193.83
2024-04-08T12:31:37.283Z,100192.05
2024-04-08T12:34:09.687Z,100188.98
2024-04-08T12:36:41.456Z,100187.61
2024-04-08T12:39:13.398Z,100179.35
2024-04-08T12:41:45.203Z,100159.59
2024-04-08T12:44:17.325Z,100167.67
2024-04-08T12:46:49.761Z,100165.27
2024-04-08T12:49:27.694Z,100164.18
2024-04-08T12:51:59.535Z,100159.02
2024-04-08T12:54:31.542Z,100152.81
2024-04-08T12:57:06.328Z,100152.13
2024-04-08T12:59:38.664Z,100153.34
2024-04-08T13:02:10.606Z,100148.09
2024-04-08T13:04:42.599Z,100157.49
2024-04-08T13:07:14.592Z,100153.66
2024-04-08T13:09:47.404Z,100153.75
2024-04-08T13:12:19.384Z,100148.27
2024-04-08T13:14:51.539Z,100148.20
2024-04-08T13:17:23.947Z,100143.90
2024-04-08T13:19:56.855Z,100130.29
2024-04-08T13:22:28.640Z,100131.31
2024-04-08T13:25:00.453Z,100125.93
2024-04-08T13:27:32.662Z,100130.92
2024-04-08T13:30:04.928Z,100128.88
2024-04-08T13:32:37.169Z,100127.23
2024-04-08T13:35:10.136Z,100125.40
2024-04-08T13:37:42.612Z,100121.89
2024-04-08T13:40:14.727Z,100116.77
2024-04-08T13:42:46.383Z,100116.02
2024-04-08T13:45:18.553Z,100118.44
2024-04-08T13:47:50.222Z,100110.60
2024-04-08T13:50:22.997Z,100107.88
2024-04-08T13:52:55.564Z,100104.08
2024-04-08T13:55:27.353Z,100103.65
2024-04-08T13:57:59.069Z,100098.56
2024-04-08T14:00:31.061Z,100098.40
2024-04-08T14:03:03.658Z,100095.49
2024-04-08T14:05:35.859Z,100094.10
2024-04-08T14:08:08.851Z,100090.92
2024-04-08T14:10:40.970Z,100081.86
2024-04-08T14:13:12.798Z,100087.92
2024-04-08T14:15:44.928Z,100086.45
2024-04-08T14:18:17.424Z,100076.85
2024-04-08T14:20:49.948Z,100072.21
2024-04-08T14:23:21.778Z,100065.64
2024-04-08T14:25:53.640Z,100063.80
2024-04-08T14:28:25.596Z,100057.55
2024-04-08T14:30:57.672Z,100056.34
2024-04-08T14:33:29.753Z,100051.73
2024-04-08T14:36:02.006Z,100048.98
2024-04-08T14:38:55.400Z,100047.08
2024-04-08T14:41:26.204Z,100052.23
2024-04-08T14:44:07.115Z,100056.73
2024-04-08T14:46:44.267Z,100058.33
2024-04-08T14:49:16.197Z,100064.39
2024-04-08T14:51:56.017Z,100068.91
2024-04-08T14:54:32.732Z,100051.64
2024-04-08T14:57:07.278Z,100064.48
2024-04-08T14:59:39.758Z,100055.50
2024-04-08T15:02:11.453Z,100070.15
2024-04-08T15:04:43.434Z,100072.67
2024-04-08T15:07:19.800Z,100073.02
2024-04-08T15:09:58.134Z,100067.55
2024-04-08T15:12:29.816Z,100069.20
2024-04-08T15:15:06.265Z,100062.48
2024-04-08T15:17:40.118Z,100069.54
2024-04-08T15:20:12.842Z,100066.36
2024-04-08T15:22:44.730Z,100060.09
2024-04-08T15:25:18.617Z,100059.11
2024-04-08T15:27:50.849Z,100064.34
2024-04-08T15:30:22.684Z,100065.80
2024-04-08T15:32:54.986Z,100069.66
2024-04-08T15:35:27.048Z,100072.92
2024-04-08T15:38:01.131Z,100067.70
2024-04-08T15:40:33.160Z,100040.70
2024-04-08T15:43:05.022Z,100061.78
2024-04-08T15:45:36.677Z,100064.23
2024-04-08T15:48:09.357Z,100062.65
2024-04-08T15:50:41.978Z,100058.30
2024-04-08T15:53:14.149Z,100066.22
2024-04-08T15:55:46.728Z,100063.66
2024-04-08T15:58:18.771Z,100065.05
2024-04-08T16:01:00.466Z,100063.73
2024-04-08T16:03:33.730Z,100064.08
2024-04-08T16:06:13.863Z,100066.99
2024-04-08T16:08:47.740Z,100048.84
2024-04-08T16:11:23.944Z,100060.26
2024-04-08T16:13:56.233Z,100059.19
2024-04-08T16:16:28.294Z,100060.05
2024-04-08T16:19:00.592Z,100062.80
2024-04-08T16:21:32.951Z,100063.42
2024-04-08T16:24:06.216Z,100073.30
2024-04-08T16:26:39.198Z,100075.20
2024-04-08T16:29:11.433Z,100074.63
2024-04-08T16:31:43.394Z,100073.91
2024-04-08T16:34:15.657Z,100075.56
2024-04-08T16:36:48.523Z,100077.31
2024-04-08T16:39:20.539Z,100082.87
2024-04-08T16:41:52.819Z,100081.70
2024-04-08T16:44:25.219Z,100078.25
2024-04-08T16:46:58.692Z,100076.96
2024-04-08T16:49:33.646Z,100079.59
2024-04-08T16:52:06.001Z,100085.16
2024-04-08T16:54:42.186Z,100083.87
2024-04-08T16:57:14.216Z,100084.92
2024-04-08T16:59:46.585Z,100087.42
2024-04-08T17:02:20.048Z,100094.71
2024-04-08T17:04:52.495Z,100093.33
2024-04-08T17:07:28.533Z,100095.98
2024-04-08T17:10:00.924Z,100094.25
2024-04-08T17:12:33.605Z,100090.60
2024-04-08T17:15:06.735Z,100089.52
2024-04-08T17:17:38.579Z,100088.70
2024-04-08T17:20:12.444Z,100084.95
2024-04-08T17:22:45.920Z,100082.34
2024-04-08T17:25:18.075Z,100066.91
2024-04-08T17:27:49.674Z,100078.15
2024-04-08T17:30:21.541Z,100085.95
2024-04-08T17:32:53.574Z,100090.34
2024-04-08T17:35:28.280Z,100090.90
2024-04-08T17:38:00.081Z,100093.79
2024-04-08T17:40:31.951Z,100096.59
2024-04-08T17:43:05.793Z,100095.08
2024-04-08T17:45:38.321Z,100095.92
2024-04-08T17:48:10.998Z,100092.33
2024-04-08T17:50:51.778Z,100100.04
2024-04-08T17:53:24.522Z,100099.64
2024-04-08T17:56:01.322Z,100099.84
2024-04-08T17:58:34.646Z,100096.11
2024-04-08T18:01:09.749Z,100097.90
2024-04-08T18:03:43.212Z,100098.95
2024-04-08T18:06:18.256Z,100096.52
2024-04-08T18:08:51.593Z,100096.23
2024-04-08T18:11:26.494Z,100101.70
2024-04-08T18:13:57.238Z,100102.83
2024-04-08T18:16:33.295Z,100105.48
2024-04-08T18:19:05.993Z,100103.96
2024-04-08T18:21:41.710Z,100108.84
2024-04-08T18:24:13.686Z,100109.39
2024-04-08T18:26:46.278Z,100106.77
2024-04-08T18:29:18.175Z,100109.35
2024-04-08T18:31:51.797Z,100111.27
2024-04-08T18:34:24.598Z,100109.20
2024-04-08T18:36:56.913Z,100107.73
2024-04-08T18:39:28.913Z,100115.67
2024-04-08T18:42:01.533Z,100109.88
2024-04-08T18:44:33.719Z,100108.38
2024-04-08T18:47:06.407Z,100105.03
2024-04-08T18:49:38.232Z,100107.11
2024-04-08T18:52:10.371Z,100101.73
2024-04-08T18:54:44.250Z,100101.20
2024-04-08T18:57:16.345Z,100096.87
2024-04-08T18:59:49.302Z,100095.31
2024-04-08T19:02:21.710Z,100094.64
2024-04-08T19:04:54.112Z,100088.38
2024-04-08T19:07:27.651Z,100083.27
2024-04-08T19:10:00.086Z,100081.95
2024-04-08T19:12:33.934Z,100068.14
2024-04-08T19:15:08.232Z,100074.24
2024-04-08T19:17:40.648Z,100078.59
2024-04-08T19:20:13.451Z,100076.95
2024-04-08T19:22:48.436Z,100077.79
2024-04-08T19:25:20.718Z,100083.48
2024-04-08T19:27:56.600Z,100082.05
2024-04-08T19:30:29.056Z,100089.32
2024-04-08T19:33:01.958Z,100093.05
2024-04-08T19:35:34.398Z,100090.64
2024-04-08T19:38:07.699Z,100090.46
2024-04-08T19:40:39.781Z,100094.04
2024-04-08T19:43:13.456Z,100099.88
2024-04-08T19:48:18.040Z,100091.58
2024-04-08T19:50:50.278Z,100087.52
2024-04-08T19:53:22.529Z,100091.94
2024-04-08T19:55:54.714Z,100098.08
2024-04-08T19:58:28.339Z,100071.30
2024-04-08T20:01:02.507Z,100094.81
2024-04-08T20:03:34.565Z,100098.56
2024-04-08T20:06:07.902Z,100101.09
2024-04-08T20:08:40.701Z,100099.33
2024-04-08T20:11:13.162Z,100106.10
2024-04-08T20:13:47.945Z,100111.21
2024-04-08T20:16:24.236Z,100110.44
2024-04-08T20:18:56.099Z,100111.13
2024-04-08T20:21:28.921Z,100108.41
2024-04-08T20:24:01.009Z,100110.80
2024-04-08T20:26:32.871Z,100107.70
2024-04-08T20:29:04.955Z,100104.12
2024-04-08T20:31:36.671Z,100100.20
2024-04-08T20:34:08.425Z,100095.98
2024-04-08T20:36:40.743Z,100095.31
2024-04-08T20:39:13.513Z,100092.09
2024-04-08T20:41:45.317Z,100097.23
2024-04-08T20:44:17.107Z,100092.17
2024-04-08T20:46:50.645Z,100093.90
2024-04-08T20:49:22.558Z,100090.95
2024-04-08T20:51:58.043Z,100091.59
2024-04-08T20:54:30.792Z,100091.63
2024-04-08T20:57:04.304Z,100086.08
2024-04-08T20:59:36.225Z,100091.11
2024-04-08T21:02:08.955Z,100085.92
2024-04-08T21:04:45.726Z,100084.63
2024-04-08T21:07:17.992Z,100085.41
2024-04-08T21:09:49.840Z,100089.81
2024-04-08T21:12:22.462Z,100084.92
2024-04-08T21:14:55.062Z,100084.85
2024-04-08T21:17:26.886Z,100081.49
2024-04-08T21:19:58.731Z,100078.58
2024-04-08T21:22:30.778Z,100077.19
2024-04-08T21:25:02.820Z,100072.66
2024-04-08T21:27:35.009Z,100070.24
2024-04-08T21:30:09.201Z,100066.43
2024-04-08T21:32:40.933Z,100063.73
2024-04-08T21:35:12.805Z,100063.60
2024-04-08T21:37:44.539Z,100064.08
2024-04-08T21:40:16.625Z,100062.77
2024-04-08T21:42:48.441Z,100064.69
2024-04-08T21:45:20.311Z,100072.90
2024-04-08T21:47:52.707Z,100078.67
2024-04-08T21:50:24.745Z,100076.80
2024-04-08T21:52:56.429Z,100075.15
2024-04-08T21:55:28.298Z,100069.55
2024-04-08T21:58:00.055Z,100073.94
2024-04-08T22:00:33.371Z,100066.11
2024-04-08T22:03:05.959Z,100060.47
2024-04-08T22:05:37.787Z,100066.50
2024-04-08T22:08:09.978Z,100067.21
2024-04-08T22:10:41.944Z,100061.70
2024-04-08T22:13:13.724Z,100057.11
2024-04-08T22:15:46.064Z,100054.19
2024-04-08T22:18:20.684Z,100053.91
2024-04-08T22:20:54.850Z,100058.70
2024-04-08T22:23:26.933Z,100060.17
2024-04-08T22:25:58.873Z,100065.11
2024-04-08T22:28:31.355Z,100066.10
2024-04-08T22:31:03.562Z,100065.37
2024-04-08T22:33:35.481Z,100061.23
2024-04-08T22:36:08.524Z,100053.69
2024-04-08T22:38:40.378Z,100050.94
2024-04-08T22:41:20.514Z,100050.36
2024-04-08T22:43:53.059Z,100050.63
2024-04-08T22:46:25.123Z,100044.10
2024-04-08T22:48:56.948Z,100044.16
2024-04-08T22:51:29.089Z,100043.76
2024-04-08T22:54:01.098Z,100044.50
2024-04-08T22:56:33.145Z,100050.04
2024-04-08T22:59:04.843Z,100045.95
2024-04-08T23:01:36.455Z,100041.36
2024-04-08T23:04:08.862Z,100034.64
2024-04-08T23:06:40.927Z,100025.98
2024-04-08T23:09:12.765Z,100018.21
2024-04-08T23:11:45.357Z,100011.35
2024-04-08T23:14:17.336Z,100010.50
2024-04-08T23:16:49.334Z,100007.16
2024-04-08T23:19:21.216Z,100008.70
2024-04-08T23:21:53.160Z,100010.66
2024-04-08T23:24:25.320Z,100008.84
2024-04-08T23:26:57.889Z,100004.73
2024-04-08T23:29:29.717Z,100002.86
2024-04-08T23:32:01.510Z,99999.06
2024-04-08T23:34:33.431Z,99992.59
2024-04-08T23:37:05.750Z,99985.54
2024-04-08T23:39:38.076Z,99983.41
2024-04-08T23:42:10.841Z,99980.60
2024-04-08T23:44:42.571Z,99978.95
2024-04-08T23:47:14.358Z,99979.85
2024-04-08T23:49:46.329Z,99982.10
2024-04-08T23:52:18.292Z,99983.39
2024-04-08T23:54:50.091Z,99986.40
2024-04-08T23:57:22.054Z,99982.16
2024-04-08T23:59:53.867Z,99989.52
